sensor_id;sensor_type;location;lat;lon;timestamp;temperature;humidity
32698;DHT22;19087;51.062;3.754;2022-12-01T00:01:05;6.40;99.90
32698;DHT22;19087;51.062;3.754;2022-12-01T00:03:31;6.30;99.90
32698;DHT22;19087;51.062;3.754;2022-12-01T00:06:10;6.40;99.90
32698;DHT22;19087;51.062;3.754;2022-12-01T00:08:36;6.20;99.90
32698;DHT22;19087;51.062;3.754;2022-12-01T00:11:05;6.20;99.90
32698;DHT22;19087;51.062;3.754;2022-12-01T00:13:31;6.10;99.90
32698;DHT22;19087;51.062;3.754;2022-12-01T00:15:57;6.00;99.90
32698;DHT22;19087;51.062;3.754;2022-12-01T00:18:22;6.00;99.90
32698;DHT22;19087;51.062;3.754;2022-12-01T00:20:48;5.90;99.90
32698;DHT22;19087;51.062;3.754;2022-12-01T00:23:20;6.00;99.90
32698;DHT22;19087;51.062;3.754;2022-12-01T00:25:49;6.00;99.90
32698;DHT22;19087;51.062;3.754;2022-12-01T00:28:16;5.90;99.90
32698;DHT22;19087;51.062;3.754;2022-12-01T00:30:42;5.90;99.90
32698;DHT22;19087;51.062;3.754;2022-12-01T00:33:08;5.70;99.90
32698;DHT22;19087;51.062;3.754;2022-12-01T00:35:35;5.50;99.90
32698;DHT22;19087;51.062;3.754;2022-12-01T00:38:01;5.50;99.90
32698;DHT22;19087;51.062;3.754;2022-12-01T00:40:26;5.50;99.90
32698;DHT22;19087;51.062;3.754;2022-12-01T00:42:52;5.60;99.90
32698;DHT22;19087;51.062;3.754;2022-12-01T00:45:18;5.50;99.90
32698;DHT22;19087;51.062;3.754;2022-12-01T00:47:43;5.50;99.90
32698;DHT22;19087;51.062;3.754;2022-12-01T00:50:09;5.40;99.90
32698;DHT22;19087;51.062;3.754;2022-12-01T00:52:35;5.40;99.90
32698;DHT22;19087;51.062;3.754;2022-12-01T00:55:00;5.50;99.90
32698;DHT22;19087;51.062;3.754;2022-12-01T00:57:26;5.40;99.90
32698;DHT22;19087;51.062;3.754;2022-12-01T00:59:52;5.30;99.90
32698;DHT22;19087;51.062;3.754;2022-12-01T01:02:17;5.20;99.90
32698;DHT22;19087;51.062;3.754;2022-12-01T01:04:49;5.40;99.90
32698;DHT22;19087;51.062;3.754;2022-12-01T01:07:15;5.30;99.90
32698;DHT22;19087;51.062;3.754;2022-12-01T01:09:48;5.40;99.90
32698;DHT22;19087;51.062;3.754;2022-12-01T01:12:14;5.40;99.90
32698;DHT22;19087;51.062;3.754;2022-12-01T01:14:40;5.30;99.90
32698;DHT22;19087;51.062;3.754;2022-12-01T01:17:05;5.20;99.90
32698;DHT22;19087;51.062;3.754;2022-12-01T01:19:31;5.20;99.90
32698;DHT22;19087;51.062;3.754;2022-12-01T01:21:56;5.30;99.90
32698;DHT22;19087;51.062;3.754;2022-12-01T01:24:22;5.20;99.90
32698;DHT22;19087;51.062;3.754;2022-12-01T01:26:48;5.00;99.90
32698;DHT22;19087;51.062;3.754;2022-12-01T01:29:13;5.00;99.90
32698;DHT22;19087;51.062;3.754;2022-12-01T01:31:45;5.20;99.90
32698;DHT22;19087;51.062;3.754;2022-12-01T01:34:30;5.30;99.90
32698;DHT22;19087;51.062;3.754;2022-12-01T01:36:56;5.30;99.90
32698;DHT22;19087;51.062;3.754;2022-12-01T01:39:21;5.10;99.90
32698;DHT22;19087;51.062;3.754;2022-12-01T01:41:47;5.10;99.90
32698;DHT22;19087;51.062;3.754;2022-12-01T01:47:35;5.30;99.90
32698;DHT22;19087;51.062;3.754;2022-12-01T01:50:07;5.50;99.90
32698;DHT22;19087;51.062;3.754;2022-12-01T01:52:36;5.50;99.90
32698;DHT22;19087;51.062;3.754;2022-12-01T01:55:06;5.50;99.90
32698;DHT22;19087;51.062;3.754;2022-12-01T01:57:43;5.60;99.90
32698;DHT22;19087;51.062;3.754;2022-12-01T02:00:22;5.80;99.90
32698;DHT22;19087;51.062;3.754;2022-12-01T02:02:49;5.80;99.90
32698;DHT22;19087;51.062;3.754;2022-12-01T02:05:23;5.90;99.90
32698;DHT22;19087;51.062;3.754;2022-12-01T02:07:55;6.10;99.90
32698;DHT22;19087;51.062;3.754;2022-12-01T02:10:24;6.00;99.90
32698;DHT22;19087;51.062;3.754;2022-12-01T02:13:05;5.90;99.90
32698;DHT22;19087;51.062;3.754;2022-12-01T02:21:24;6.30;99.90
32698;DHT22;19087;51.062;3.754;2022-12-01T02:26:43;6.30;99.90
32698;DHT22;19087;51.062;3.754;2022-12-01T02:34:59;6.20;99.90
32698;DHT22;19087;51.062;3.754;2022-12-01T02:37:48;6.30;99.90
32698;DHT22;19087;51.062;3.754;2022-12-01T02:40:32;6.30;99.90
32698;DHT22;19087;51.062;3.754;2022-12-01T02:45:52;6.20;99.90
32698;DHT22;19087;51.062;3.754;2022-12-01T02:48:34;6.20;99.90
32698;DHT22;19087;51.062;3.754;2022-12-01T02:51:15;6.30;99.90
32698;DHT22;19087;51.062;3.754;2022-12-01T02:53:42;6.20;99.90
32698;DHT22;19087;51.062;3.754;2022-12-01T02:56:12;6.20;99.90
32698;DHT22;19087;51.062;3.754;2022-12-01T02:58:38;6.30;99.90
32698;DHT22;19087;51.062;3.754;2022-12-01T03:07:21;6.30;99.90
32698;DHT22;19087;51.062;3.754;2022-12-01T03:17:44;6.50;99.90
32698;DHT22;19087;51.062;3.754;2022-12-01T03:23:23;6.60;99.90
32698;DHT22;19087;51.062;3.754;2022-12-01T03:25:51;6.60;99.90
32698;DHT22;19087;51.062;3.754;2022-12-01T03:29:13;6.70;99.90
32698;DHT22;19087;51.062;3.754;2022-12-01T03:31:50;6.70;99.90
32698;DHT22;19087;51.062;3.754;2022-12-01T03:34:29;6.60;99.90
32698;DHT22;19087;51.062;3.754;2022-12-01T03:37:17;6.70;99.90
32698;DHT22;19087;51.062;3.754;2022-12-01T03:39:51;6.80;99.90
32698;DHT22;19087;51.062;3.754;2022-12-01T03:42:42;6.60;99.90
32698;DHT22;19087;51.062;3.754;2022-12-01T03:48:20;6.60;99.90
32698;DHT22;19087;51.062;3.754;2022-12-01T03:56:35;6.50;99.90
32698;DHT22;19087;51.062;3.754;2022-12-01T03:59:05;6.60;99.90
32698;DHT22;19087;51.062;3.754;2022-12-01T04:01:32;6.70;99.90
32698;DHT22;19087;51.062;3.754;2022-12-01T04:04:08;6.60;99.90
32698;DHT22;19087;51.062;3.754;2022-12-01T04:06:35;6.60;99.90
32698;DHT22;19087;51.062;3.754;2022-12-01T04:09:01;6.60;99.90
32698;DHT22;19087;51.062;3.754;2022-12-01T04:11:27;6.60;99.90
32698;DHT22;19087;51.062;3.754;2022-12-01T04:14:11;6.60;99.90
32698;DHT22;19087;51.062;3.754;2022-12-01T04:16:37;6.80;99.90
32698;DHT22;19087;51.062;3.754;2022-12-01T04:19:03;6.90;99.90
32698;DHT22;19087;51.062;3.754;2022-12-01T04:21:31;6.70;99.90
32698;DHT22;19087;51.062;3.754;2022-12-01T04:23:57;6.70;99.90
32698;DHT22;19087;51.062;3.754;2022-12-01T04:26:31;6.60;99.90
32698;DHT22;19087;51.062;3.754;2022-12-01T04:29:01;6.60;99.90
32698;DHT22;19087;51.062;3.754;2022-12-01T04:31:27;6.70;99.90
32698;DHT22;19087;51.062;3.754;2022-12-01T04:33:54;6.80;99.90
32698;DHT22;19087;51.062;3.754;2022-12-01T04:36:21;6.90;99.90
32698;DHT22;19087;51.062;3.754;2022-12-01T04:38:47;6.70;99.90
32698;DHT22;19087;51.062;3.754;2022-12-01T04:41:13;6.90;99.90
32698;DHT22;19087;51.062;3.754;2022-12-01T04:43:39;7.00;99.90
32698;DHT22;19087;51.062;3.754;2022-12-01T04:46:06;7.10;99.90
32698;DHT22;19087;51.062;3.754;2022-12-01T04:48:38;7.20;99.90
32698;DHT22;19087;51.062;3.754;2022-12-01T04:51:06;6.90;99.90
32698;DHT22;19087;51.062;3.754;2022-12-01T04:53:32;6.90;99.90
32698;DHT22;19087;51.062;3.754;2022-12-01T04:56:00;6.80;99.90
32698;DHT22;19087;51.062;3.754;2022-12-01T04:58:30;6.50;99.90
32698;DHT22;19087;51.062;3.754;2022-12-01T05:01:05;6.40;99.90
32698;DHT22;19087;51.062;3.754;2022-12-01T05:03:34;6.40;99.90
32698;DHT22;19087;51.062;3.754;2022-12-01T05:06:09;6.40;99.90
32698;DHT22;19087;51.062;3.754;2022-12-01T05:08:41;6.30;99.90
32698;DHT22;19087;51.062;3.754;2022-12-01T05:11:08;6.30;99.90
32698;DHT22;19087;51.062;3.754;2022-12-01T05:13:38;6.30;99.90
32698;DHT22;19087;51.062;3.754;2022-12-01T05:16:19;6.30;99.90
32698;DHT22;19087;51.062;3.754;2022-12-01T05:18:54;6.20;99.90
32698;DHT22;19087;51.062;3.754;2022-12-01T05:21:44;6.00;99.90
32698;DHT22;19087;51.062;3.754;2022-12-01T05:24:11;6.00;99.90
32698;DHT22;19087;51.062;3.754;2022-12-01T05:26:37;6.00;99.90
32698;DHT22;19087;51.062;3.754;2022-12-01T05:29:03;6.00;99.90
32698;DHT22;19087;51.062;3.754;2022-12-01T05:31:44;6.00;99.90
32698;DHT22;19087;51.062;3.754;2022-12-01T05:34:11;5.90;99.90
32698;DHT22;19087;51.062;3.754;2022-12-01T05:36:37;5.80;99.90
32698;DHT22;19087;51.062;3.754;2022-12-01T05:39:03;5.90;99.90
32698;DHT22;19087;51.062;3.754;2022-12-01T05:41:29;5.80;99.90
32698;DHT22;19087;51.062;3.754;2022-12-01T05:43:54;6.00;99.90
32698;DHT22;19087;51.062;3.754;2022-12-01T05:46:20;5.90;99.90
32698;DHT22;19087;51.062;3.754;2022-12-01T05:48:48;5.90;99.90
32698;DHT22;19087;51.062;3.754;2022-12-01T05:51:15;5.90;99.90
32698;DHT22;19087;51.062;3.754;2022-12-01T05:53:41;6.00;99.90
32698;DHT22;19087;51.062;3.754;2022-12-01T05:56:07;5.90;99.90
32698;DHT22;19087;51.062;3.754;2022-12-01T05:58:33;6.00;99.90
32698;DHT22;19087;51.062;3.754;2022-12-01T06:00:59;6.10;99.90
32698;DHT22;19087;51.062;3.754;2022-12-01T06:03:25;6.20;99.90
32698;DHT22;19087;51.062;3.754;2022-12-01T06:05:51;6.30;99.90
32698;DHT22;19087;51.062;3.754;2022-12-01T06:08:18;6.20;99.90
32698;DHT22;19087;51.062;3.754;2022-12-01T06:10:44;6.40;99.90
32698;DHT22;19087;51.062;3.754;2022-12-01T06:13:10;6.50;99.90
32698;DHT22;19087;51.062;3.754;2022-12-01T06:15:38;6.50;99.90
32698;DHT22;19087;51.062;3.754;2022-12-01T06:18:07;6.70;99.90
32698;DHT22;19087;51.062;3.754;2022-12-01T06:20:35;6.60;99.90
32698;DHT22;19087;51.062;3.754;2022-12-01T06:23:01;6.60;99.90
32698;DHT22;19087;51.062;3.754;2022-12-01T06:25:27;6.70;99.90
32698;DHT22;19087;51.062;3.754;2022-12-01T06:27:57;6.80;99.90
32698;DHT22;19087;51.062;3.754;2022-12-01T06:30:23;6.80;99.90
32698;DHT22;19087;51.062;3.754;2022-12-01T06:32:49;6.90;99.90
32698;DHT22;19087;51.062;3.754;2022-12-01T06:35:15;6.90;99.90
32698;DHT22;19087;51.062;3.754;2022-12-01T06:37:41;6.80;99.90
32698;DHT22;19087;51.062;3.754;2022-12-01T06:40:08;6.80;99.90
32698;DHT22;19087;51.062;3.754;2022-12-01T06:42:34;6.80;99.90
32698;DHT22;19087;51.062;3.754;2022-12-01T06:45:00;6.90;99.90
32698;DHT22;19087;51.062;3.754;2022-12-01T06:47:26;7.10;99.90
32698;DHT22;19087;51.062;3.754;2022-12-01T06:49:51;7.20;99.90
32698;DHT22;19087;51.062;3.754;2022-12-01T06:52:17;7.30;99.90
32698;DHT22;19087;51.062;3.754;2022-12-01T06:54:43;7.20;99.90
32698;DHT22;19087;51.062;3.754;2022-12-01T06:57:08;7.30;99.90
32698;DHT22;19087;51.062;3.754;2022-12-01T06:59:35;7.20;99.90
32698;DHT22;19087;51.062;3.754;2022-12-01T07:02:03;7.00;99.90
32698;DHT22;19087;51.062;3.754;2022-12-01T07:04:30;6.90;99.90
32698;DHT22;19087;51.062;3.754;2022-12-01T07:06:56;6.80;99.90
32698;DHT22;19087;51.062;3.754;2022-12-01T07:09:24;7.00;99.90
32698;DHT22;19087;51.062;3.754;2022-12-01T07:11:52;7.00;99.90
32698;DHT22;19087;51.062;3.754;2022-12-01T07:14:22;7.20;99.90
32698;DHT22;19087;51.062;3.754;2022-12-01T07:16:48;7.20;99.90
32698;DHT22;19087;51.062;3.754;2022-12-01T07:19:14;7.20;99.90
32698;DHT22;19087;51.062;3.754;2022-12-01T07:21:41;7.20;99.90
32698;DHT22;19087;51.062;3.754;2022-12-01T07:24:13;7.20;99.90
32698;DHT22;19087;51.062;3.754;2022-12-01T07:26:39;7.20;99.90
32698;DHT22;19087;51.062;3.754;2022-12-01T07:29:06;7.20;99.90
32698;DHT22;19087;51.062;3.754;2022-12-01T07:31:31;7.10;99.90
32698;DHT22;19087;51.062;3.754;2022-12-01T07:33:57;7.30;99.90
32698;DHT22;19087;51.062;3.754;2022-12-01T07:36:23;7.40;99.90
32698;DHT22;19087;51.062;3.754;2022-12-01T07:38:48;7.40;99.90
32698;DHT22;19087;51.062;3.754;2022-12-01T07:41:15;7.50;99.90
32698;DHT22;19087;51.062;3.754;2022-12-01T07:43:43;7.60;99.90
32698;DHT22;19087;51.062;3.754;2022-12-01T07:46:16;7.70;99.90
32698;DHT22;19087;51.062;3.754;2022-12-01T07:48:42;7.50;99.90
32698;DHT22;19087;51.062;3.754;2022-12-01T07:51:10;7.40;99.90
32698;DHT22;19087;51.062;3.754;2022-12-01T07:53:36;7.50;99.90
32698;DHT22;19087;51.062;3.754;2022-12-01T07:56:02;7.60;99.90
32698;DHT22;19087;51.062;3.754;2022-12-01T07:58:29;7.50;99.90
32698;DHT22;19087;51.062;3.754;2022-12-01T08:00:54;7.50;99.90
32698;DHT22;19087;51.062;3.754;2022-12-01T08:03:20;7.60;99.90
32698;DHT22;19087;51.062;3.754;2022-12-01T08:05:55;7.70;99.90
32698;DHT22;19087;51.062;3.754;2022-12-01T08:08:21;7.80;99.90
32698;DHT22;19087;51.062;3.754;2022-12-01T08:10:47;7.80;99.90
32698;DHT22;19087;51.062;3.754;2022-12-01T08:13:12;7.70;99.90
32698;DHT22;19087;51.062;3.754;2022-12-01T08:15:38;7.90;99.90
32698;DHT22;19087;51.062;3.754;2022-12-01T08:18:05;7.90;99.90
32698;DHT22;19087;51.062;3.754;2022-12-01T08:20:30;7.90;99.90
32698;DHT22;19087;51.062;3.754;2022-12-01T08:22:59;7.80;99.90
32698;DHT22;19087;51.062;3.754;2022-12-01T08:25:26;7.90;99.90
32698;DHT22;19087;51.062;3.754;2022-12-01T08:27:52;8.00;99.90
32698;DHT22;19087;51.062;3.754;2022-12-01T08:30:17;8.00;99.90
32698;DHT22;19087;51.062;3.754;2022-12-01T08:32:43;7.90;99.90
32698;DHT22;19087;51.062;3.754;2022-12-01T08:35:09;7.90;99.90
32698;DHT22;19087;51.062;3.754;2022-12-01T08:37:34;7.90;99.90
32698;DHT22;19087;51.062;3.754;2022-12-01T08:40:00;8.00;99.90
32698;DHT22;19087;51.062;3.754;2022-12-01T08:42:26;8.00;99.90
32698;DHT22;19087;51.062;3.754;2022-12-01T08:44:51;8.10;99.90
32698;DHT22;19087;51.062;3.754;2022-12-01T08:47:17;7.80;99.90
32698;DHT22;19087;51.062;3.754;2022-12-01T08:49:43;7.90;99.90
32698;DHT22;19087;51.062;3.754;2022-12-01T08:52:09;7.90;99.90
32698;DHT22;19087;51.062;3.754;2022-12-01T08:54:34;8.10;99.90
32698;DHT22;19087;51.062;3.754;2022-12-01T08:57:00;8.20;99.90
32698;DHT22;19087;51.062;3.754;2022-12-01T08:59:25;8.10;99.90
32698;DHT22;19087;51.062;3.754;2022-12-01T09:01:51;8.10;99.90
32698;DHT22;19087;51.062;3.754;2022-12-01T09:04:18;8.20;99.90
32698;DHT22;19087;51.062;3.754;2022-12-01T09:06:46;8.30;99.90
32698;DHT22;19087;51.062;3.754;2022-12-01T09:09:15;8.20;99.90
32698;DHT22;19087;51.062;3.754;2022-12-01T09:11:41;8.30;99.90
32698;DHT22;19087;51.062;3.754;2022-12-01T09:14:12;8.20;99.90
32698;DHT22;19087;51.062;3.754;2022-12-01T09:16:38;8.10;99.90
32698;DHT22;19087;51.062;3.754;2022-12-01T09:19:04;7.90;99.90
32698;DHT22;19087;51.062;3.754;2022-12-01T09:21:33;7.80;99.90
32698;DHT22;19087;51.062;3.754;2022-12-01T09:24:00;8.10;99.90
32698;DHT22;19087;51.062;3.754;2022-12-01T09:26:26;7.90;99.90
32698;DHT22;19087;51.062;3.754;2022-12-01T09:28:53;8.00;99.90
32698;DHT22;19087;51.062;3.754;2022-12-01T09:31:20;8.00;99.90
32698;DHT22;19087;51.062;3.754;2022-12-01T09:33:52;7.80;99.90
32698;DHT22;19087;51.062;3.754;2022-12-01T09:36:18;7.70;99.90
32698;DHT22;19087;51.062;3.754;2022-12-01T09:38:46;7.80;99.90
32698;DHT22;19087;51.062;3.754;2022-12-01T09:41:19;7.70;99.90
32698;DHT22;19087;51.062;3.754;2022-12-01T09:46:44;7.80;99.90
32698;DHT22;19087;51.062;3.754;2022-12-01T09:49:25;7.80;99.90
32698;DHT22;19087;51.062;3.754;2022-12-01T09:51:53;7.80;99.90
32698;DHT22;19087;51.062;3.754;2022-12-01T09:54:20;7.80;99.90
32698;DHT22;19087;51.062;3.754;2022-12-01T09:56:48;7.90;99.90
32698;DHT22;19087;51.062;3.754;2022-12-01T09:59:21;8.00;99.90
32698;DHT22;19087;51.062;3.754;2022-12-01T10:01:54;7.90;99.90
32698;DHT22;19087;51.062;3.754;2022-12-01T10:04:35;7.90;99.90
32698;DHT22;19087;51.062;3.754;2022-12-01T10:07:05;8.00;99.90
32698;DHT22;19087;51.062;3.754;2022-12-01T10:10:03;8.10;99.90
32698;DHT22;19087;51.062;3.754;2022-12-01T10:12:32;7.90;99.90
32698;DHT22;19087;51.062;3.754;2022-12-01T10:17:56;8.10;99.90
32698;DHT22;19087;51.062;3.754;2022-12-01T10:20:40;8.30;99.90
32698;DHT22;19087;51.062;3.754;2022-12-01T10:26:02;8.50;99.90
32698;DHT22;19087;51.062;3.754;2022-12-01T10:31:52;8.30;99.90
32698;DHT22;19087;51.062;3.754;2022-12-01T10:34:27;8.30;99.90
32698;DHT22;19087;51.062;3.754;2022-12-01T10:36:53;8.30;99.90
32698;DHT22;19087;51.062;3.754;2022-12-01T10:44:50;8.30;99.90
32698;DHT22;19087;51.062;3.754;2022-12-01T10:47:23;8.40;99.90
32698;DHT22;19087;51.062;3.754;2022-12-01T10:49:50;8.50;99.90
32698;DHT22;19087;51.062;3.754;2022-12-01T10:52:38;8.60;99.90
32698;DHT22;19087;51.062;3.754;2022-12-01T10:55:28;8.80;99.90
32698;DHT22;19087;51.062;3.754;2022-12-01T10:57:57;8.90;99.90
32698;DHT22;19087;51.062;3.754;2022-12-01T11:00:26;9.00;99.90
32698;DHT22;19087;51.062;3.754;2022-12-01T11:02:53;8.90;99.90
32698;DHT22;19087;51.062;3.754;2022-12-01T11:05:25;9.10;99.90
32698;DHT22;19087;51.062;3.754;2022-12-01T11:07:52;9.10;99.90
32698;DHT22;19087;51.062;3.754;2022-12-01T11:15:25;9.40;99.90
32698;DHT22;19087;51.062;3.754;2022-12-01T11:18:08;9.30;99.90
32698;DHT22;19087;51.062;3.754;2022-12-01T11:20:44;9.50;99.90
32698;DHT22;19087;51.062;3.754;2022-12-01T11:23:22;9.60;99.90
32698;DHT22;19087;51.062;3.754;2022-12-01T11:28:36;9.80;99.90
32698;DHT22;19087;51.062;3.754;2022-12-01T11:31:07;10.00;99.90
32698;DHT22;19087;51.062;3.754;2022-12-01T11:33:49;9.90;99.90
32698;DHT22;19087;51.062;3.754;2022-12-01T11:36:43;10.00;99.90
32698;DHT22;19087;51.062;3.754;2022-12-01T11:39:32;9.90;99.90
32698;DHT22;19087;51.062;3.754;2022-12-01T11:42:23;10.00;99.90
32698;DHT22;19087;51.062;3.754;2022-12-01T11:44:59;9.90;99.90
32698;DHT22;19087;51.062;3.754;2022-12-01T11:47:26;9.80;99.90
32698;DHT22;19087;51.062;3.754;2022-12-01T11:49:56;9.90;99.90
32698;DHT22;19087;51.062;3.754;2022-12-01T11:52:31;9.80;99.90
32698;DHT22;19087;51.062;3.754;2022-12-01T11:54:59;10.10;99.90
32698;DHT22;19087;51.062;3.754;2022-12-01T11:57:27;10.30;99.90
32698;DHT22;19087;51.062;3.754;2022-12-01T11:59:53;10.10;99.90
32698;DHT22;19087;51.062;3.754;2022-12-01T12:02:26;10.20;99.90
32698;DHT22;19087;51.062;3.754;2022-12-01T12:37:09;12.00;99.90
32698;DHT22;19087;51.062;3.754;2022-12-01T12:42:25;13.30;99.90
32698;DHT22;19087;51.062;3.754;2022-12-01T12:45:09;13.80;99.90
32698;DHT22;19087;51.062;3.754;2022-12-01T12:51:00;13.60;99.90
32698;DHT22;19087;51.062;3.754;2022-12-01T12:53:39;13.20;99.90
32698;DHT22;19087;51.062;3.754;2022-12-01T12:56:09;12.80;99.90
32698;DHT22;19087;51.062;3.754;2022-12-01T12:58:58;12.40;99.90
32698;DHT22;19087;51.062;3.754;2022-12-01T13:01:56;12.20;99.90
32698;DHT22;19087;51.062;3.754;2022-12-01T13:04:51;12.00;99.90
32698;DHT22;19087;51.062;3.754;2022-12-01T13:10:48;11.50;99.90
32698;DHT22;19087;51.062;3.754;2022-12-01T13:13:38;11.00;99.90
32698;DHT22;19087;51.062;3.754;2022-12-01T13:16:10;10.70;99.90
32698;DHT22;19087;51.062;3.754;2022-12-01T13:18:47;10.70;99.90
32698;DHT22;19087;51.062;3.754;2022-12-01T13:21:19;10.80;99.90
32698;DHT22;19087;51.062;3.754;2022-12-01T13:23:47;10.80;99.90
32698;DHT22;19087;51.062;3.754;2022-12-01T13:26:14;10.80;99.90
32698;DHT22;19087;51.062;3.754;2022-12-01T13:28:50;11.00;99.90
32698;DHT22;19087;51.062;3.754;2022-12-01T13:31:18;11.00;99.90
32698;DHT22;19087;51.062;3.754;2022-12-01T13:34:02;10.80;99.90
32698;DHT22;19087;51.062;3.754;2022-12-01T13:36:29;10.50;99.90
32698;DHT22;19087;51.062;3.754;2022-12-01T13:39:02;10.20;99.90
32698;DHT22;19087;51.062;3.754;2022-12-01T13:41:31;10.10;99.90
32698;DHT22;19087;51.062;3.754;2022-12-01T13:49:03;9.90;99.90
32698;DHT22;19087;51.062;3.754;2022-12-01T13:52:15;9.80;99.90
32698;DHT22;19087;51.062;3.754;2022-12-01T13:57:28;9.70;99.90
32698;DHT22;19087;51.062;3.754;2022-12-01T14:02:25;9.70;99.90
32698;DHT22;19087;51.062;3.754;2022-12-01T14:04:52;9.50;99.90
32698;DHT22;19087;51.062;3.754;2022-12-01T14:07:31;9.50;99.90
32698;DHT22;19087;51.062;3.754;2022-12-01T14:10:08;9.30;99.90
32698;DHT22;19087;51.062;3.754;2022-12-01T14:12:38;9.30;99.90
32698;DHT22;19087;51.062;3.754;2022-12-01T14:15:30;9.40;99.90
32698;DHT22;19087;51.062;3.754;2022-12-01T14:18:29;9.40;99.90
32698;DHT22;19087;51.062;3.754;2022-12-01T14:20:57;9.20;99.90
32698;DHT22;19087;51.062;3.754;2022-12-01T14:23:25;9.10;99.90
32698;DHT22;19087;51.062;3.754;2022-12-01T14:26:17;8.90;99.90
32698;DHT22;19087;51.062;3.754;2022-12-01T14:34:16;9.10;99.90
32698;DHT22;19087;51.062;3.754;2022-12-01T14:39:42;9.00;99.90
32698;DHT22;19087;51.062;3.754;2022-12-01T14:45:06;8.90;99.90
32698;DHT22;19087;51.062;3.754;2022-12-01T14:47:50;8.80;99.90
32698;DHT22;19087;51.062;3.754;2022-12-01T14:50:51;9.00;99.90
32698;DHT22;19087;51.062;3.754;2022-12-01T14:53:24;8.90;99.90
32698;DHT22;19087;51.062;3.754;2022-12-01T14:55:56;8.90;99.90
32698;DHT22;19087;51.062;3.754;2022-12-01T14:58:30;8.70;99.90
32698;DHT22;19087;51.062;3.754;2022-12-01T15:01:03;8.60;99.90
32698;DHT22;19087;51.062;3.754;2022-12-01T15:03:47;8.60;99.90
32698;DHT22;19087;51.062;3.754;2022-12-01T15:06:21;8.50;99.90
32698;DHT22;19087;51.062;3.754;2022-12-01T15:09:16;8.60;99.90
32698;DHT22;19087;51.062;3.754;2022-12-01T15:12:17;8.60;99.90
32698;DHT22;19087;51.062;3.754;2022-12-01T15:14:47;8.60;99.90
32698;DHT22;19087;51.062;3.754;2022-12-01T15:17:31;8.40;99.90
32698;DHT22;19087;51.062;3.754;2022-12-01T15:19:59;8.30;99.90
32698;DHT22;19087;51.062;3.754;2022-12-01T15:22:33;8.40;99.90
32698;DHT22;19087;51.062;3.754;2022-12-01T15:25:29;8.30;99.90
32698;DHT22;19087;51.062;3.754;2022-12-01T15:28:20;8.30;99.90
32698;DHT22;19087;51.062;3.754;2022-12-01T15:30:52;8.30;99.90
32698;DHT22;19087;51.062;3.754;2022-12-01T15:33:32;8.20;99.90
32698;DHT22;19087;51.062;3.754;2022-12-01T15:35:59;8.00;99.90
32698;DHT22;19087;51.062;3.754;2022-12-01T15:38:29;8.10;99.90
32698;DHT22;19087;51.062;3.754;2022-12-01T15:40:58;7.90;99.90
32698;DHT22;19087;51.062;3.754;2022-12-01T15:43:37;7.70;99.90
32698;DHT22;19087;51.062;3.754;2022-12-01T15:46:12;7.70;99.90
32698;DHT22;19087;51.062;3.754;2022-12-01T15:48:38;7.70;99.90
32698;DHT22;19087;51.062;3.754;2022-12-01T15:53:38;7.70;99.90
32698;DHT22;19087;51.062;3.754;2022-12-01T15:56:07;7.70;99.90
32698;DHT22;19087;51.062;3.754;2022-12-01T15:58:45;7.80;99.90
32698;DHT22;19087;51.062;3.754;2022-12-01T16:01:17;7.70;99.90
32698;DHT22;19087;51.062;3.754;2022-12-01T16:04:05;7.50;99.90
32698;DHT22;19087;51.062;3.754;2022-12-01T16:06:38;7.60;99.90
32698;DHT22;19087;51.062;3.754;2022-12-01T16:09:30;7.40;99.90
32698;DHT22;19087;51.062;3.754;2022-12-01T16:12:19;7.30;99.90
32698;DHT22;19087;51.062;3.754;2022-12-01T16:17:28;7.50;99.90
32698;DHT22;19087;51.062;3.754;2022-12-01T16:20:32;7.40;99.90
32698;DHT22;19087;51.062;3.754;2022-12-01T16:23:01;7.40;99.90
32698;DHT22;19087;51.062;3.754;2022-12-01T16:25:36;7.50;99.90
32698;DHT22;19087;51.062;3.754;2022-12-01T16:28:04;7.20;99.90
32698;DHT22;19087;51.062;3.754;2022-12-01T16:30:38;7.20;99.90
32698;DHT22;19087;51.062;3.754;2022-12-01T16:33:24;7.20;99.90
32698;DHT22;19087;51.062;3.754;2022-12-01T16:36:01;7.10;99.90
32698;DHT22;19087;51.062;3.754;2022-12-01T16:38:29;7.20;99.90
32698;DHT22;19087;51.062;3.754;2022-12-01T16:40:59;7.20;99.90
32698;DHT22;19087;51.062;3.754;2022-12-01T16:43:28;7.20;99.90
32698;DHT22;19087;51.062;3.754;2022-12-01T16:46:05;7.10;99.90
32698;DHT22;19087;51.062;3.754;2022-12-01T16:48:36;7.10;99.90
32698;DHT22;19087;51.062;3.754;2022-12-01T16:51:05;7.00;99.90
32698;DHT22;19087;51.062;3.754;2022-12-01T16:53:33;6.90;99.90
32698;DHT22;19087;51.062;3.754;2022-12-01T16:56:01;7.00;99.90
32698;DHT22;19087;51.062;3.754;2022-12-01T16:58:27;6.90;99.90
32698;DHT22;19087;51.062;3.754;2022-12-01T17:00:53;6.90;99.90
32698;DHT22;19087;51.062;3.754;2022-12-01T17:03:26;6.90;99.90
32698;DHT22;19087;51.062;3.754;2022-12-01T17:05:52;6.90;99.90
32698;DHT22;19087;51.062;3.754;2022-12-01T17:08:18;6.90;99.90
32698;DHT22;19087;51.062;3.754;2022-12-01T17:10:47;6.90;99.90
32698;DHT22;19087;51.062;3.754;2022-12-01T17:13:14;6.90;99.90
32698;DHT22;19087;51.062;3.754;2022-12-01T17:15:45;6.90;99.90
32698;DHT22;19087;51.062;3.754;2022-12-01T17:18:12;6.70;99.90
32698;DHT22;19087;51.062;3.754;2022-12-01T17:20:40;6.60;99.90
32698;DHT22;19087;51.062;3.754;2022-12-01T17:23:06;6.60;99.90
32698;DHT22;19087;51.062;3.754;2022-12-01T17:25:33;6.70;99.90
32698;DHT22;19087;51.062;3.754;2022-12-01T17:28:02;6.70;99.90
32698;DHT22;19087;51.062;3.754;2022-12-01T17:30:27;6.70;99.90
32698;DHT22;19087;51.062;3.754;2022-12-01T17:32:54;6.60;99.90
32698;DHT22;19087;51.062;3.754;2022-12-01T17:35:20;6.50;99.90
32698;DHT22;19087;51.062;3.754;2022-12-01T17:37:46;6.50;99.90
32698;DHT22;19087;51.062;3.754;2022-12-01T17:40:12;6.50;99.90
32698;DHT22;19087;51.062;3.754;2022-12-01T17:42:39;6.20;99.90
32698;DHT22;19087;51.062;3.754;2022-12-01T17:45:06;6.20;99.90
32698;DHT22;19087;51.062;3.754;2022-12-01T17:47:31;6.20;99.90
32698;DHT22;19087;51.062;3.754;2022-12-01T17:49:57;6.20;99.90
32698;DHT22;19087;51.062;3.754;2022-12-01T17:52:23;6.10;99.90
32698;DHT22;19087;51.062;3.754;2022-12-01T17:54:48;6.20;99.90
32698;DHT22;19087;51.062;3.754;2022-12-01T17:57:14;6.30;99.90
32698;DHT22;19087;51.062;3.754;2022-12-01T17:59:40;6.30;99.90
32698;DHT22;19087;51.062;3.754;2022-12-01T18:02:06;6.40;99.90
32698;DHT22;19087;51.062;3.754;2022-12-01T18:04:33;6.30;99.90
32698;DHT22;19087;51.062;3.754;2022-12-01T18:06:59;6.40;99.90
32698;DHT22;19087;51.062;3.754;2022-12-01T18:09:27;6.30;99.90
32698;DHT22;19087;51.062;3.754;2022-12-01T18:11:55;6.00;99.90
32698;DHT22;19087;51.062;3.754;2022-12-01T18:14:22;6.00;99.90
32698;DHT22;19087;51.062;3.754;2022-12-01T18:16:49;6.00;99.90
32698;DHT22;19087;51.062;3.754;2022-12-01T18:19:15;6.10;99.90
32698;DHT22;19087;51.062;3.754;2022-12-01T18:21:40;6.20;99.90
32698;DHT22;19087;51.062;3.754;2022-12-01T18:24:09;6.20;99.90
32698;DHT22;19087;51.062;3.754;2022-12-01T18:26:38;6.20;99.90
32698;DHT22;19087;51.062;3.754;2022-12-01T18:29:14;6.00;99.90